JCI weather

New Century Aircenter Airport
Olathe, Kansas, United States

Public forecast

Using degrees Fahrenheit for public forecast. Weather courtesy of forecast.io.

METAR (pilot weather report)

Retrieved 2019/08/25 04:53 UTC (1 hour ago):

KIXD 250453Z AUTO 11007KT 10SM OVC022 21/17 A3003 RMK AO2 SLP161 T02060167

TAF (pilot weather forecast)

Forecast is more than 12 hours old.

Retrieved 2019/08/24 00:24 UTC (1 day ago):

TAF KIXD 242323Z 2500/2524 09011KT P6SM OVC025 FM250700 11010KT 5SM BR OVC015 FM251300 13008KT 5SM -DZ BR OVC007